Weather forecast for Bulen (Булен)

Russia, 519 m
N52.847, E104.807


Sounding

Red line — air temperature ˚C.
Blue line — thermal bubble temperature ˚C.
Green line — dew point temperature ˚C.
Wind speed is in meters per second.

Table forecast

GFS 0.25˚ model

temp. wind gust humid. clouds prec. press. hpbl
Mon22 00:00 17 312.0 nw 1 2 84 100 0.0 1007 23
03:00 14 225.0 sw 1 1 91 66 0.0 1007 23
06:00 13 169.0 s 1 1 94 93 0.0 1006 23
09:00 17 185.0 s 1 1 80 90 0.0 1007 295
12:00 22 228.0 sw 2 1 63 72 0.0 1005 644
15:00 27 268.0 w 2 3 47 86 0.1 1005 1566
18:00 26 291.0 wnw 4 4 54 100 1.6 1003 1209
21:00 19 261.0 w 4 5 87 100 6.3 1005 113
 
Tue23 00:00 17 253.0 wsw 3 8 98 100 4.2 1004 250
03:00 16 275.0 w 4 8 97 100 7.3 1004 274
06:00 16 273.0 w 3 7 97 100 2.9 1003 226
09:00 16 291.0 wnw 3 8 96 100 6.4 1004 283
12:00 18 326.0 nw 4 7 92 100 2.1 1004 393
15:00 18 308.0 nw 3 8 93 100 3.4 1004 339
18:00 18 295.0 wnw 5 8 92 100 1.1 1003 296
21:00 17 307.0 nw 2 6 93 100 1.4 1005 190
 
Wed24 00:00 16 261.0 w 1 2 95 100 0.0 1005 35
03:00 16 197.0 ssw 1 1 94 100 0.0 1005 24
06:00 14 169.0 s 1 1 97 98 0.0 1004 23
09:00 17 101.0 e 1 2 91 99 0.0 1005 241
12:00 22 87.0 e 2 2 70 88 0.1 1003 630
15:00 26 129.0 se 1 4 52 55 1.3 1002 1490
18:00 27 135.0 se 4 6 47 37 0.2 1001 1750
21:00 22 138.0 se 3 3 63 18 0.2 1001 62
 
Thu25 00:00 16 89.0 e 1 2 79 0 0.0 1001 27
03:00 15 76.0 ene 2 2 72 0 0.0 1000 32
06:00 14 82.0 e 2 2 74 0 0.0 1000 31
09:00 19 101.0 e 3 6 63 0 0.0 999 348
12:00 26 128.0 se 5 7 45 29 0.0 998 1214
15:00 28 132.0 se 6 8 36 31 0.0 996 2040
18:00 28 122.0 ese 5 7 37 53 0.0 996 1964
21:00 23 98.0 e 3 6 53 56 0.0 997 106
 
Fri26 00:00 18 95.0 e 4 10 51 0 0.0 998 213
03:00 16 100.0 e 2 3 52 0 0.0 998 76
06:00 14 61.0 ene 2 3 60 0 0.0 998 41
09:00 20 110.0 ese 1 3 55 0 0.0 998 244
12:00 27 129.0 se 3 6 37 1 0.0 996 1272
15:00 29 115.0 ese 5 6 30 0 0.0 995 2329
18:00 29 107.0 ese 5 7 33 0 0.0 994 2406
21:00 24 82.0 e 5 10 43 0 0.0 995 232
 

0.017 s